Les articles d'ExpertMaritime.pro


Votre expert maritime indépendant Xavier Braive est disponible sur la zone de Saujon - Port de Ribérou - 17600

(Charente-Maritime - Poitou-Charentes)


Voir plan
Situation :

Le port de Ribérou est un port de pêche et de plaisance situé au fond de l'estuaire de la Seudre, à Saujon. C'est l'un des deux ports de la ville avec celui du Breuil, un peu en aval.

Actif dès le XIe siècle, il prend son aspect actuel à partir de 1842, sous l'impulsion du ministre des travaux publics de l'époque, Jules Dufaure, " enfant du pays", qui tente ainsi de relancer le commerce maritime et les activités halieutiques, alors en déclin.
Idéalement situé, en marge du centre-ville, de la base de loisirs de La Lande et des espaces préservés des marais de la Seudre (chemins de halage transformés en sentiers de promenade), il est devenu un des hauts lieux du tourisme saujonnais, où sont notamment organisés des soirées thématiques et le feu d'artifice du 14 juillet.

En 2011, le port de Ribérou a été l'objet d'un important programme de rénovation urbaine conduit par l'architecte-urbaniste Sophie Blanchet, complétant des efforts déjà mis en œuvre en centre-ville.
Une partie du site est reconvertie en esplanade piétonne, dotée d'un mobilier urbain contemporain : il se veut une sorte de "trait d'union" entre la base de loisirs de La Lande (piscine, tennis, boulodrome, stade, terrain de basket...), les sentiers de promenade et de découverte des marais de la Seudre, qui débutent au port, et le centre-ville.
L'inauguration du nouveau port a lieu le 18 août 2012, en présence du maire, Pascal Ferchaud, et d'une foule nombreuse venue profiter des animations : concerts, jeux nautiques, joutes, etc.

Aujourd'hui, le port de Ribérou est un petit port de pêche et de plaisance. C'est également une base de départ pour certains sports nautiques (canoë-kayak). Sa longueur est d'environ 250 mètres pour 40 mètres.
Depuis Ribérou, il est possible d'atteindre successivement les ports du Breuil (Saujon), de L'Éguille, de Mornac, de Chaillevette, de Chatressac (Chaillevette), des Grandes Roches et d'Orivol (Étaules), de La Grève à Duret et de Coux (Arvert), de La Grève (La Tremblade) et de La Cayenne (Marennes).


En 2011, la municipalité entame un programme de rénovation du site portuaire, confié à l'architecte-urbaniste Sophie Blanchet. Il consiste en une transformation des anciens parkings en esplanade piétonne, véritable espace de rencontre doté d'un mobilier urbain moderne et à terme, d'espaces verts. Depuis les quais, bordés d'immeubles bourgeois, de petites rues pittoresques et fleuries de roses trémières permettent de sillonner le quartier et de rejoindre le centre-ville.

Le pont à écluse de Ribérou, dit « pont des eaux contraires », a été rénové en 2010. Il marque la séparation entre les eaux de l'estuaire (côté port : eaux saumâtres) et les eaux du fleuve (côté bassin de retenue : eaux douces).



Adresse :

Mairie
1, place Denfert Rochereau
17600 SAUJON

Tél/Fax : 05 46 02 80 07 / 05 46 02 91 92

E-mail : contact@mairie-saujon.fr
Météo locale sur la zone Port de Ribérou
Heure (UTC) Dir.Vent Vit.Vent (nds) Force (Bft) T°min T°max P (mb) Hum.Rel.
01/12/2022 - 00:00:00 au 01/12/2022 - 03:00:00 043° (NE) 11 4 4°C 6°C 1022 91 %
01/12/2022 - 03:00:00 au 01/12/2022 - 06:00:00 045° (NE) 11 4 4°C 5°C 1022 92 %
01/12/2022 - 06:00:00 au 01/12/2022 - 09:00:00 044° (NE) 11 4 5°C 5°C 1023 89 %
01/12/2022 - 09:00:00 au 01/12/2022 - 12:00:00 050° (NE) 11 4 9°C 9°C 1023 70 %
01/12/2022 - 12:00:00 au 01/12/2022 - 15:00:00 046° (NE) 11 4 9°C 9°C 1022 66 %
01/12/2022 - 15:00:00 au 01/12/2022 - 18:00:00 029° (NNE) 9 3 6°C 6°C 1022 81 %
01/12/2022 - 18:00:00 au 01/12/2022 - 21:00:00 034° (NE) 9 3 6°C 6°C 1022 79 %
01/12/2022 - 21:00:00 au 02/12/2022 - 00:00:00 045° (NE) 8 3 7°C 7°C 1021 71 %
02/12/2022 - 00:00:00 au 02/12/2022 - 03:00:00 049° (NE) 9 3 6°C 6°C 1021 83 %
02/12/2022 - 03:00:00 au 02/12/2022 - 06:00:00 061° (ENE) 8 3 5°C 5°C 1020 92 %
02/12/2022 - 06:00:00 au 02/12/2022 - 09:00:00 047° (NE) 9 3 5°C 5°C 1020 87 %
02/12/2022 - 09:00:00 au 02/12/2022 - 12:00:00 060° (ENE) 12 4 9°C 9°C 1018 67 %
02/12/2022 - 12:00:00 au 02/12/2022 - 15:00:00 057° (ENE) 11 4 9°C 9°C 1017 62 %
02/12/2022 - 15:00:00 au 02/12/2022 - 18:00:00 044° (NE) 10 3 7°C 7°C 1016 68 %
02/12/2022 - 18:00:00 au 02/12/2022 - 21:00:00 037° (NE) 9 3 6°C 6°C 1016 75 %
02/12/2022 - 21:00:00 au 03/12/2022 - 00:00:00 038° (NE) 10 3 5°C 5°C 1015 81 %
03/12/2022 - 00:00:00 au 03/12/2022 - 03:00:00 039° (NE) 11 4 5°C 5°C 1014 80 %
03/12/2022 - 03:00:00 au 03/12/2022 - 06:00:00 036° (NE) 12 4 4°C 4°C 1013 96 %
03/12/2022 - 06:00:00 au 03/12/2022 - 09:00:00 041° (NE) 12 4 4°C 4°C 1013 93 %
03/12/2022 - 09:00:00 au 03/12/2022 - 12:00:00 070° (ENE) 10 3 5°C 5°C 1012 91 %
03/12/2022 - 12:00:00 au 03/12/2022 - 15:00:00 066° (ENE) 9 3 6°C 6°C 1011 79 %
03/12/2022 - 15:00:00 au 03/12/2022 - 18:00:00 051° (NE) 8 3 6°C 6°C 1012 83 %
03/12/2022 - 18:00:00 au 03/12/2022 - 21:00:00 053° (NE) 7 3 6°C 6°C 1012 85 %
03/12/2022 - 21:00:00 au 04/12/2022 - 00:00:00 055° (NE) 6 2 6°C 6°C 1011 92 %
04/12/2022 - 00:00:00 au 04/12/2022 - 03:00:00 057° (ENE) 5 2 6°C 6°C 1010 92 %
04/12/2022 - 03:00:00 au 04/12/2022 - 06:00:00 047° (NE) 5 2 6°C 6°C 1010 92 %
04/12/2022 - 06:00:00 au 04/12/2022 - 09:00:00 062° (ENE) 5 2 6°C 6°C 1011 88 %
04/12/2022 - 09:00:00 au 04/12/2022 - 12:00:00 162° (SSE) 2 1 9°C 9°C 1011 76 %
04/12/2022 - 12:00:00 au 04/12/2022 - 15:00:00 293° (WNW) 2 1 9°C 9°C 1011 72 %
04/12/2022 - 15:00:00 au 04/12/2022 - 18:00:00 052° (NE) 4 2 6°C 6°C 1012 86 %
04/12/2022 - 18:00:00 au 04/12/2022 - 21:00:00 098° (E) 5 2 6°C 6°C 1013 87 %
04/12/2022 - 21:00:00 au 05/12/2022 - 00:00:00 128° (SE) 5 2 7°C 7°C 1014 83 %
05/12/2022 - 00:00:00 au 05/12/2022 - 03:00:00 140° (SE) 6 2 6°C 6°C 1014 85 %
05/12/2022 - 03:00:00 au 05/12/2022 - 06:00:00 138° (SE) 6 2 5°C 5°C 1015 90 %
05/12/2022 - 06:00:00 au 05/12/2022 - 09:00:00 129° (SE) 8 3 6°C 6°C 1016 85 %
05/12/2022 - 09:00:00 au 05/12/2022 - 12:00:00 136° (SE) 9 3 8°C 8°C 1015 76 %
05/12/2022 - 12:00:00 au 05/12/2022 - 15:00:00 121° (ESE) 6 2 8°C 8°C 1015 79 %
05/12/2022 - 15:00:00 au 05/12/2022 - 18:00:00 137° (SE) 6 2 8°C 8°C 1015 85 %
05/12/2022 - 18:00:00 au 05/12/2022 - 21:00:00 145° (SE) 8 3 7°C 7°C 1015 88 %
05/12/2022 - 21:00:00 au 06/12/2022 - 00:00:00 125° (SE) 8 3 7°C 7°C 1014 95 %
openweathermap
Ces informations sont partiellement extraites de Wikipedia, et des sites pertinents pour cette zone. Compilation d'informations de Xavier Braive.
Xavier Braive, Expert Maritime Plaisance se déplace sur Port de Ribérou, Saujon, 17600, Charente-Maritime

Welcome to Cross-Channel yachtmen !

we can deliver survey reports in english, in case of dammage or prior to buy / sell a boat in France (pre-purchase survey), and more specifically on the Atlantic coast.

Uw onafhankelijk jachtexpert

verkrijkbaar op de Atlantische kust, bij aankoop of reparatie van jachten (metaal, polyester of composiet). Rapporten in Nederlands

BRAIVE, Xavier
Xavier Braive
Expert Maritime
Nouvelle Aquitaine
France
07 64 82 25 44